Time;durP1;ratioP1;P1;durP2;ratioP2;P2;SDS_P1;SDS_P2;PMS_P1;PMS_P2;Temp;Humidity;BMP_temperature;BMP_pressure;BME280_temperature;BME280_humidity;BME280_pressure;Samples;Min_cycle;Max_cycle;Signal;HPM_P1;HPM_P2
2021/12/31 00:01:11;;;;;;;17.40;11.52;;;;;;;3.84;100.00;93666.81;5052340;28;20049;-84
2021/12/31 00:03:37;;;;;;;16.70;11.68;;;;;;;3.98;100.00;93671.28;5052530;28;20064;-84
2021/12/31 00:06:05;;;;;;;16.65;11.75;;;;;;;3.99;100.00;93662.69;5052460;28;20045;-84
2021/12/31 00:08:32;;;;;;;17.92;12.45;;;;;;;4.15;100.00;93658.56;5052016;28;20049;-84
2021/12/31 00:11:01;;;;;;;110.95;57.50;;;;;;;4.17;100.00;93650.78;5052011;28;20492;-84
2021/12/31 00:13:28;;;;;;;22.08;14.85;;;;;;;4.28;100.00;93665.72;5052085;28;20092;-84
2021/12/31 00:15:55;;;;;;;17.30;11.63;;;;;;;4.31;100.00;93669.72;5052214;28;20060;-84
2021/12/31 00:18:22;;;;;;;16.27;11.30;;;;;;;4.33;100.00;93673.69;5071276;28;20048;-84
2021/12/31 00:20:49;;;;;;;15.55;10.70;;;;;;;4.28;100.00;93666.53;5072235;28;20056;-84
2021/12/31 00:23:19;;;;;;;17.77;11.70;;;;;;;4.44;100.00;93671.78;5071849;28;20048;-84
2021/12/31 00:25:46;;;;;;;16.55;10.60;;;;;;;4.45;100.00;93686.06;5071683;28;20131;-84
2021/12/31 00:28:14;;;;;;;14.68;10.40;;;;;;;4.39;100.00;93682.41;5071642;28;20052;-84
2021/12/31 00:30:42;;;;;;;15.38;10.88;;;;;;;4.39;100.00;93685.75;5072004;28;20114;-84
2021/12/31 00:33:10;;;;;;;15.30;10.27;;;;;;;4.44;100.00;93689.56;5071798;28;20048;-84
2021/12/31 00:35:38;;;;;;;16.45;9.75;;;;;;;4.30;100.00;93681.63;5071529;28;20052;-84
2021/12/31 00:38:05;;;;;;;16.50;9.35;;;;;;;4.06;100.00;93679.84;5071569;28;20048;-84
2021/12/31 00:40:32;;;;;;;14.90;9.20;;;;;;;3.95;100.00;93701.28;5071947;28;20067;-84
2021/12/31 00:42:59;;;;;;;11.75;7.78;;;;;;;3.57;100.00;93687.22;5071444;28;20059;-84
2021/12/31 00:45:27;;;;;;;15.63;9.40;;;;;;;3.72;100.00;93690.00;5071151;28;20045;-84
2021/12/31 00:47:55;;;;;;;11.68;8.00;;;;;;;3.51;100.00;93682.00;5071320;28;20487;-84
2021/12/31 00:50:22;;;;;;;11.70;7.53;;;;;;;3.30;100.00;93663.69;5071233;28;20052;-84
2021/12/31 00:52:49;;;;;;;12.20;8.88;;;;;;;3.23;100.00;93667.75;5071124;28;20060;-84
2021/12/31 00:55:16;;;;;;;12.52;8.20;;;;;;;3.15;100.00;93655.81;5071302;28;20552;-83
2021/12/31 00:57:43;;;;;;;12.70;8.20;;;;;;;3.01;100.00;93620.88;5071506;28;20060;-84
2021/12/31 01:00:12;;;;;;;11.30;8.15;;;;;;;3.13;100.00;93629.81;5071416;28;20056;-83
2021/12/31 01:02:43;;;;;;;11.30;7.85;;;;;;;3.40;100.00;93653.38;5071028;28;20106;-83
2021/12/31 01:05:11;;;;;;;12.75;8.35;;;;;;;3.42;100.00;93651.47;5071640;28;20151;-84
2021/12/31 01:07:38;;;;;;;12.07;8.70;;;;;;;3.53;100.00;93662.31;5071048;28;20055;-84
2021/12/31 01:10:06;;;;;;;11.27;8.57;;;;;;;3.57;100.00;93658.50;5071199;28;20048;-84
2021/12/31 01:12:34;;;;;;;11.75;8.15;;;;;;;3.50;100.00;93654.97;5070991;28;20094;-84
2021/12/31 01:15:04;;;;;;;11.82;8.52;;;;;;;3.45;100.00;93640.22;5071145;28;20044;-84
2021/12/31 01:17:47;;;;;;;14.85;8.77;;;;;;;3.53;100.00;93665.66;5070754;28;20056;-84
2021/12/31 01:20:17;;;;;;;13.02;9.10;;;;;;;3.44;100.00;93647.06;5070938;28;20143;-84
2021/12/31 01:22:44;;;;;;;15.85;9.57;;;;;;;3.28;100.00;93631.75;5070868;28;20503;-84
2021/12/31 01:25:12;;;;;;;12.57;8.98;;;;;;;3.40;100.00;93663.53;5071180;28;20061;-84
2021/12/31 01:27:40;;;;;;;12.65;8.63;;;;;;;3.47;100.00;93682.28;5070968;28;20495;-84
2021/12/31 01:30:09;;;;;;;12.88;8.43;;;;;;;3.53;100.00;93682.63;5071430;28;20083;-84
2021/12/31 01:32:36;;;;;;;13.75;9.30;;;;;;;3.46;100.00;93690.84;5071077;28;20040;-85
2021/12/31 01:35:04;;;;;;;13.35;8.52;;;;;;;3.50;100.00;93676.09;5070998;28;20056;-84
2021/12/31 01:37:32;;;;;;;15.05;9.43;;;;;;;3.43;100.00;93675.91;5070953;28;20056;-85
2021/12/31 01:39:59;;;;;;;12.25;9.07;;;;;;;3.44;100.00;93661.47;5070677;28;20430;-82
2021/12/31 01:42:30;;;;;;;13.70;8.98;;;;;;;3.68;100.00;93685.34;5070720;28;20048;-82
2021/12/31 01:45:01;;;;;;;12.75;9.02;;;;;;;3.72;100.00;93684.09;5070611;28;20060;-83
2021/12/31 01:47:34;;;;;;;16.88;9.40;;;;;;;3.63;100.00;93696.00;5070829;28;20091;-82
2021/12/31 01:50:06;;;;;;;12.20;8.95;;;;;;;3.52;100.00;93699.59;5070798;28;20059;-82
2021/12/31 01:52:35;;;;;;;14.82;9.50;;;;;;;3.37;100.00;93698.59;5070694;28;20059;-82
2021/12/31 01:55:04;;;;;;;13.55;9.18;;;;;;;3.02;100.00;93691.00;5070635;28;20045;-82
2021/12/31 01:57:32;;;;;;;16.52;10.77;;;;;;;2.93;100.00;93692.69;5072243;28;20510;-83
2021/12/31 02:00:00;;;;;;;16.90;11.15;;;;;;;2.91;100.00;93710.59;5074565;28;20586;-83
2021/12/31 02:02:27;;;;;;;15.85;10.85;;;;;;;2.96;100.00;93716.97;5074757;28;20144;-83
2021/12/31 02:04:55;;;;;;;16.35;10.70;;;;;;;2.92;100.00;93709.66;5074451;28;20502;-83
2021/12/31 02:07:22;;;;;;;14.63;10.23;;;;;;;2.82;100.00;93716.56;5074469;28;20457;-82
2021/12/31 02:09:54;;;;;;;16.48;10.27;;;;;;;2.88;100.00;93715.19;5074336;28;20052;-84
2021/12/31 02:12:22;;;;;;;14.82;10.50;;;;;;;2.98;100.00;93715.06;5074181;28;20048;-83
2021/12/31 02:14:51;;;;;;;17.63;10.95;;;;;;;3.05;100.00;93705.91;5074120;28;20057;-83
2021/12/31 02:17:18;;;;;;;16.10;11.63;;;;;;;3.12;100.00;93698.47;5073508;28;20060;-83
2021/12/31 02:19:59;;;;;;;17.02;11.57;;;;;;;3.00;100.00;93701.28;5072148;28;20499;-83
2021/12/31 02:22:27;;;;;;;15.73;11.18;;;;;;;2.99;100.00;93696.34;5072763;28;20044;-83
2021/12/31 02:24:55;;;;;;;16.85;10.07;;;;;;;2.99;100.00;93702.25;5072775;28;20127;-82
2021/12/31 02:27:22;;;;;;;17.50;10.70;;;;;;;3.07;100.00;93687.03;5074591;28;20464;-83
2021/12/31 02:29:49;;;;;;;14.70;10.35;;;;;;;3.26;100.00;93702.19;5072531;28;20525;-83
2021/12/31 02:32:16;;;;;;;17.98;11.57;;;;;;;3.19;100.00;93702.00;5071426;28;20056;-83
2021/12/31 02:34:44;;;;;;;16.52;10.93;;;;;;;3.31;100.00;93713.50;5072557;28;20399;-84
2021/12/31 02:37:12;;;;;;;15.48;10.13;;;;;;;3.15;100.00;93713.44;5074568;28;20036;-84
2021/12/31 02:39:41;;;;;;;13.38;9.65;;;;;;;3.19;100.00;93718.03;5072568;28;20041;-83
2021/12/31 02:42:08;;;;;;;14.02;9.73;;;;;;;3.05;100.00;93727.00;5073184;28;20056;-83
2021/12/31 02:44:35;;;;;;;14.57;10.13;;;;;;;3.01;100.00;93727.47;5072562;28;20048;-84
2021/12/31 02:47:05;;;;;;;14.18;10.20;;;;;;;2.84;100.00;93713.88;5072647;28;20053;-83
2021/12/31 02:49:36;;;;;;;13.65;9.85;;;;;;;2.89;100.00;93725.19;5072721;28;20052;-83
2021/12/31 02:52:04;;;;;;;13.10;9.07;;;;;;;2.82;100.00;93747.00;5072447;28;20490;-83
2021/12/31 02:54:36;;;;;;;14.35;9.38;;;;;;;2.84;100.00;93754.47;5072482;28;20399;-83
2021/12/31 02:57:03;;;;;;;11.95;8.13;;;;;;;2.84;100.00;93742.59;5072331;28;20067;-83
2021/12/31 02:59:30;;;;;;;12.75;7.90;;;;;;;2.71;100.00;93742.16;5072418;28;20087;-83
2021/12/31 03:01:57;;;;;;;11.45;8.00;;;;;;;2.52;100.00;93739.69;5072313;28;20053;-84
2021/12/31 03:04:25;;;;;;;10.07;7.15;;;;;;;2.56;100.00;93752.88;5072883;28;20055;-83
2021/12/31 03:06:54;;;;;;;10.55;6.97;;;;;;;2.67;100.00;93752.63;5072465;28;20098;-83
2021/12/31 03:09:23;;;;;;;14.27;9.18;;;;;;;2.65;100.00;93751.97;5071819;28;20094;-83
2021/12/31 03:11:53;;;;;;;12.68;9.05;;;;;;;2.60;100.00;93743.22;5072275;28;20131;-83
2021/12/31 03:14:22;;;;;;;13.02;8.27;;;;;;;2.21;100.00;93719.78;5072170;28;20135;-83
2021/12/31 03:16:50;;;;;;;11.73;7.95;;;;;;;2.17;100.00;93750.63;5032963;28;1140975;-84
2021/12/31 03:19:19;;;;;;;12.48;9.27;;;;;;;2.06;100.00;93756.69;5073420;28;20457;-84
2021/12/31 03:21:46;;;;;;;11.38;7.93;;;;;;;2.03;100.00;93757.78;5073490;28;20052;-84
2021/12/31 03:24:13;;;;;;;13.40;8.88;;;;;;;1.86;100.00;93736.56;5073247;28;20067;-84
2021/12/31 03:26:40;;;;;;;14.15;9.38;;;;;;;1.84;100.00;93739.22;5073186;28;20045;-84
2021/12/31 03:29:08;;;;;;;12.68;8.45;;;;;;;1.92;100.00;93757.97;5072742;28;20052;-84
2021/12/31 03:31:35;;;;;;;13.90;9.27;;;;;;;1.90;100.00;93757.34;5072983;28;20048;-84
2021/12/31 03:34:02;;;;;;;13.15;9.50;;;;;;;1.99;100.00;93766.63;5073084;28;20056;-84
2021/12/31 03:36:29;;;;;;;15.88;11.43;;;;;;;1.95;100.00;93763.56;5073176;28;20052;-84
2021/12/31 03:38:55;;;;;;;14.73;10.02;;;;;;;1.89;100.00;93776.78;5072869;28;20045;-84
2021/12/31 03:41:22;;;;;;;15.15;10.13;;;;;;;1.89;100.00;93764.13;5073200;28;20060;-84
2021/12/31 03:43:49;;;;;;;16.33;11.25;;;;;;;2.01;100.00;93762.19;5072545;28;20053;-84
2021/12/31 03:46:17;;;;;;;13.73;9.77;;;;;;;1.99;100.00;93764.88;5072818;28;20434;-84
2021/12/31 03:48:44;;;;;;;13.45;9.40;;;;;;;1.99;100.00;93761.56;5072646;28;20044;-84
2021/12/31 03:51:11;;;;;;;12.60;8.52;;;;;;;1.88;100.00;93762.53;5072604;28;20106;-84
2021/12/31 03:53:38;;;;;;;11.25;8.05;;;;;;;1.86;100.00;93788.00;5072479;28;20090;-83
2021/12/31 03:56:05;;;;;;;13.32;9.27;;;;;;;1.93;100.00;93795.03;5072549;28;20086;-84
2021/12/31 03:58:32;;;;;;;13.30;9.15;;;;;;;1.82;100.00;93775.78;5072607;28;20082;-83
2021/12/31 04:00:59;;;;;;;15.23;9.77;;;;;;;2.03;100.00;93783.13;5072519;28;20044;-83
2021/12/31 04:03:27;;;;;;;19.95;13.45;;;;;;;2.01;100.00;93779.94;5072377;28;20041;-83
2021/12/31 04:05:54;;;;;;;27.73;17.67;;;;;;;2.07;100.00;93783.63;5072362;28;20041;-83
2021/12/31 04:08:21;;;;;;;23.10;15.27;;;;;;;2.09;100.00;93784.28;5072387;28;20045;-83
2021/12/31 04:10:48;;;;;;;23.05;16.45;;;;;;;2.09;100.00;93781.75;5072128;28;20155;-83
2021/12/31 04:13:15;;;;;;;18.73;13.27;;;;;;;1.98;100.00;93762.47;5072335;28;20044;-83
2021/12/31 04:15:42;;;;;;;19.83;14.77;;;;;;;2.05;100.00;93758.44;5072077;28;20044;-83
2021/12/31 04:18:09;;;;;;;22.30;16.30;;;;;;;2.09;100.00;93779.22;5072126;28;20049;-83
2021/12/31 04:20:40;;;;;;;21.70;16.88;;;;;;;1.84;100.00;93756.16;5071355;28;20049;-83
2021/12/31 04:23:13;;;;;;;21.00;14.10;;;;;;;1.95;100.00;93775.44;5071956;28;20055;-83
2021/12/31 04:25:40;;;;;;;23.90;15.40;;;;;;;1.77;100.00;93752.59;5071881;28;20044;-83
2021/12/31 04:28:07;;;;;;;22.63;14.70;;;;;;;1.74;100.00;93776.47;5071825;28;20048;-83
2021/12/31 04:30:34;;;;;;;28.38;16.15;;;;;;;1.69;100.00;93768.50;5071817;28;20056;-83
2021/12/31 04:33:01;;;;;;;29.60;17.85;;;;;;;1.71;100.00;93779.31;5071671;28;20057;-83
2021/12/31 04:35:28;;;;;;;22.60;13.80;;;;;;;1.54;100.00;93783.38;5071770;28;20094;-83
2021/12/31 04:37:57;;;;;;;7.95;5.28;;;;;;;1.49;100.00;93772.84;5071571;28;20468;-84
2021/12/31 04:40:23;;;;;;;10.45;6.70;;;;;;;1.57;100.00;93783.88;5071810;28;20049;-83
2021/12/31 04:42:51;;;;;;;10.82;7.22;;;;;;;1.65;100.00;93774.78;5071658;28;20055;-84
2021/12/31 04:45:18;;;;;;;17.00;10.98;;;;;;;1.47;100.00;93780.59;5071477;28;20045;-83
2021/12/31 04:47:45;;;;;;;16.90;11.20;;;;;;;1.42;100.00;93786.06;5071545;28;20059;-83
2021/12/31 04:50:12;;;;;;;18.08;11.55;;;;;;;1.42;100.00;93795.41;5071271;28;20048;-83
2021/12/31 04:52:39;;;;;;;23.30;13.50;;;;;;;1.47;100.00;93785.66;5072175;28;20453;-83
2021/12/31 04:55:08;;;;;;;34.75;21.02;;;;;;;1.52;100.00;93780.97;5071595;28;20388;-83
2021/12/31 04:57:35;;;;;;;32.63;20.30;;;;;;;1.51;100.00;93791.22;5071225;28;20510;-83
2021/12/31 05:00:02;;;;;;;29.88;22.42;;;;;;;1.45;100.00;93785.00;5071329;28;20048;-83
2021/12/31 05:02:29;;;;;;;27.38;18.38;;;;;;;1.58;100.00;93788.00;5071460;28;20048;-83
2021/12/31 05:04:56;;;;;;;36.80;21.20;;;;;;;1.66;100.00;93791.59;5071026;28;20135;-84
2021/12/31 05:07:22;;;;;;;37.63;22.70;;;;;;;1.69;100.00;93794.63;5071483;28;20059;-83
2021/12/31 05:09:49;;;;;;;31.80;20.83;;;;;;;1.69;100.00;93788.75;5071348;28;20117;-83
2021/12/31 05:12:23;;;;;;;36.53;22.48;;;;;;;1.62;100.00;93788.50;5071068;28;20670;-83
2021/12/31 05:14:50;;;;;;;40.70;23.90;;;;;;;1.69;100.00;93804.78;5071075;28;20044;-83
2021/12/31 05:17:17;;;;;;;37.13;22.42;;;;;;;1.67;100.00;93821.03;5071314;28;20062;-83
2021/12/31 05:19:44;;;;;;;39.65;22.58;;;;;;;1.54;100.00;93798.56;5070881;28;20049;-83
2021/12/31 05:22:11;;;;;;;41.40;23.45;;;;;;;1.64;100.00;93811.97;5071164;28;20205;-83
2021/12/31 05:24:39;;;;;;;37.63;22.13;;;;;;;1.65;100.00;93803.44;5070961;28;20053;-83
2021/12/31 05:27:06;;;;;;;47.92;26.70;;;;;;;1.63;100.00;93794.38;5070921;28;20040;-83
2021/12/31 05:29:34;;;;;;;43.15;24.55;;;;;;;1.56;100.00;93794.16;5070950;28;20048;-83
2021/12/31 05:32:01;;;;;;;33.78;19.60;;;;;;;1.51;100.00;93789.50;5070713;28;20048;-83
2021/12/31 05:34:28;;;;;;;26.83;17.75;;;;;;;1.49;100.00;93799.00;5074108;28;20048;-84
2021/12/31 05:36:55;;;;;;;29.33;17.45;;;;;;;1.39;100.00;93778.75;5071116;28;20441;-84
2021/12/31 05:39:22;;;;;;;22.15;15.02;;;;;;;1.53;100.00;93792.69;5070826;28;20419;-85
2021/12/31 05:41:49;;;;;;;20.70;15.10;;;;;;;1.52;100.00;93810.56;5070819;28;20052;-84
2021/12/31 05:44:16;;;;;;;20.27;14.50;;;;;;;1.50;100.00;93808.16;5070741;28;20514;-84
2021/12/31 05:46:48;;;;;;;21.92;15.20;;;;;;;1.50;100.00;93799.75;5070558;28;20090;-84
2021/12/31 05:49:15;;;;;;;23.88;15.27;;;;;;;1.48;100.00;93801.66;5070907;28;20118;-84
2021/12/31 05:51:42;;;;;;;27.50;15.75;;;;;;;1.50;100.00;93807.38;5070724;28;20044;-84
2021/12/31 05:54:09;;;;;;;29.83;20.33;;;;;;;1.40;100.00;93800.63;5070992;28;20052;-84
2021/12/31 05:56:35;;;;;;;31.33;20.38;;;;;;;1.48;100.00;93814.31;5070551;28;20048;-84
2021/12/31 05:59:02;;;;;;;32.75;21.88;;;;;;;1.44;100.00;93827.22;5070455;28;20430;-85
2021/12/31 06:01:29;;;;;;;37.22;23.73;;;;;;;1.36;100.00;93828.84;5070515;28;20500;-84
2021/12/31 06:03:57;;;;;;;36.20;23.02;;;;;;;1.15;100.00;93796.97;5070911;28;20048;-84
2021/12/31 06:06:24;;;;;;;37.95;25.02;;;;;;;1.34;100.00;93823.94;5070603;28;20087;-84
2021/12/31 06:08:51;;;;;;;40.67;25.75;;;;;;;1.33;100.00;93828.22;5070946;28;20049;-84
2021/12/31 06:11:18;;;;;;;44.95;28.10;;;;;;;1.31;100.00;93822.47;5053826;28;20098;-84
2021/12/31 06:13:49;;;;;;;42.97;26.48;;;;;;;1.36;100.00;93831.38;5070467;28;20052;-84
2021/12/31 06:16:16;;;;;;;41.67;26.33;;;;;;;1.28;100.00;93824.47;5070507;28;20048;-83
2021/12/31 06:18:43;;;;;;;33.35;21.60;;;;;;;1.36;100.00;93831.38;5070352;28;20396;-84
2021/12/31 06:21:12;;;;;;;24.95;16.58;;;;;;;1.37;100.00;93836.31;5070492;28;20074;-84
2021/12/31 06:23:39;;;;;;;30.02;19.27;;;;;;;1.32;100.00;93831.69;5070413;28;20408;-84
2021/12/31 06:26:05;;;;;;;41.42;20.52;;;;;;;1.22;100.00;93841.03;5067033;28;20494;-84
2021/12/31 06:28:32;;;;;;;31.15;19.60;;;;;;;1.30;100.00;93845.41;5070337;28;20041;-84
2021/12/31 06:30:59;;;;;;;33.25;21.02;;;;;;;1.38;100.00;93849.78;5070147;28;20064;-84
2021/12/31 06:33:26;;;;;;;31.17;20.45;;;;;;;1.44;100.00;93850.03;5070311;28;20044;-84
2021/12/31 06:35:52;;;;;;;32.00;20.88;;;;;;;1.52;100.00;93856.16;5070309;28;20061;-84
2021/12/31 06:38:21;;;;;;;37.90;21.98;;;;;;;1.59;100.00;93862.25;5070243;28;20045;-84
2021/12/31 06:40:47;;;;;;;25.73;17.40;;;;;;;1.51;100.00;93839.34;5070166;28;20059;-85
2021/12/31 06:43:14;;;;;;;25.13;16.77;;;;;;;1.63;100.00;93855.16;5071230;28;20502;-84
2021/12/31 06:45:41;;;;;;;35.88;23.42;;;;;;;1.49;100.00;93857.22;5074019;28;20063;-85
2021/12/31 06:48:08;;;;;;;34.20;21.20;;;;;;;1.66;100.00;93860.75;5073670;28;20056;-84
2021/12/31 06:50:35;;;;;;;45.08;29.33;;;;;;;1.77;100.00;93862.31;5073732;28;20172;-84
2021/12/31 06:53:02;;;;;;;85.10;53.72;;;;;;;1.83;100.00;93869.38;5073615;28;20053;-85
2021/12/31 06:55:32;;;;;;;87.65;57.92;;;;;;;1.87;100.00;93872.41;5073574;28;20041;-84
2021/12/31 06:57:59;;;;;;;60.65;39.03;;;;;;;1.94;100.00;93865.06;5073756;28;20110;-84
2021/12/31 07:00:26;;;;;;;46.95;31.05;;;;;;;2.00;100.00;93877.94;5073636;28;20053;-84
2021/12/31 07:03:04;;;;;;;43.83;30.50;;;;;;;2.11;100.00;93873.63;5073585;28;20169;-84
2021/12/31 07:05:31;;;;;;;37.10;24.77;;;;;;;2.24;100.00;93870.78;5073516;28;20048;-84
2021/12/31 07:07:58;;;;;;;32.58;22.63;;;;;;;2.34;100.00;93869.00;5073223;28;20041;-84
2021/12/31 07:10:25;;;;;;;93.85;55.80;;;;;;;2.39;100.00;93871.09;5073219;28;20487;-84
2021/12/31 07:12:58;;;;;;;59.67;37.00;;;;;;;2.20;100.00;93832.25;5073451;28;20133;-84
2021/12/31 07:15:24;;;;;;;76.28;47.63;;;;;;;2.47;100.00;93852.63;5074690;28;20044;-84
2021/12/31 07:17:51;;;;;;;68.88;43.05;;;;;;;2.52;100.00;93855.53;5073714;28;20080;-84
2021/12/31 07:20:18;;;;;;;73.80;48.28;;;;;;;2.59;100.00;93864.16;5073189;28;20047;-85
2021/12/31 07:22:45;;;;;;;82.93;48.33;;;;;;;2.60;100.00;93867.50;5073135;28;20056;-84
2021/12/31 07:25:12;;;;;;;73.60;43.92;;;;;;;2.44;100.00;93846.09;5073060;28;20049;-84
2021/12/31 07:27:39;;;;;;;68.35;40.55;;;;;;;2.56;100.00;93856.84;5073192;28;20040;-85
2021/12/31 07:30:09;;;;;;;61.08;37.55;;;;;;;2.65;100.00;93866.09;5072986;28;20061;-84
2021/12/31 07:32:36;;;;;;;69.82;42.28;;;;;;;2.68;100.00;93865.03;5073065;28;20098;-84
2021/12/31 07:35:04;;;;;;;65.22;40.42;;;;;;;2.75;100.00;93863.53;5072669;28;20090;-84
2021/12/31 07:37:31;;;;;;;65.93;39.85;;;;;;;2.43;100.00;93805.66;5072991;28;20053;-82
2021/12/31 07:40:02;;;;;;;70.57;41.75;;;;;;;2.80;100.00;93856.28;5072768;28;20558;-82
2021/12/31 07:42:29;;;;;;;70.95;42.47;;;;;;;2.76;100.00;93857.50;5072792;28;20510;-83
2021/12/31 07:44:56;;;;;;;83.78;48.20;;;;;;;2.88;100.00;93870.75;5072708;28;20051;-83
2021/12/31 07:47:25;;;;;;;85.95;51.60;;;;;;;2.89;100.00;93863.94;5072692;28;20067;-82
2021/12/31 07:49:51;;;;;;;82.72;47.00;;;;;;;2.96;100.00;93877.63;5072786;28;20103;-82
2021/12/31 07:52:18;;;;;;;66.00;37.55;;;;;;;3.00;100.00;93871.31;5072599;28;20048;-82
2021/12/31 07:54:45;;;;;;;56.92;31.13;;;;;;;3.09;100.00;93869.66;5068582;28;20449;-85
2021/12/31 07:57:12;;;;;;;53.97;31.80;;;;;;;3.13;100.00;93863.34;5072563;28;20101;-82
2021/12/31 07:59:39;;;;;;;61.35;32.50;;;;;;;3.24;100.00;93861.50;5072447;28;20438;-83
2021/12/31 08:02:06;;;;;;;70.43;34.53;;;;;;;3.33;100.00;93860.59;5072171;28;20414;-83
2021/12/31 08:04:34;;;;;;;49.47;26.48;;;;;;;3.41;100.00;93862.41;5072393;28;20048;-83
2021/12/31 08:07:01;;;;;;;35.42;22.17;;;;;;;3.48;100.00;93861.66;5072199;28;20140;-83
2021/12/31 08:09:28;;;;;;;37.75;21.67;;;;;;;3.59;100.00;93864.91;5072254;28;20044;-83
2021/12/31 08:11:55;;;;;;;36.55;21.88;;;;;;;3.67;100.00;93862.41;5072162;28;20053;-83
2021/12/31 08:14:21;;;;;;;31.88;18.27;;;;;;;3.67;100.00;93854.81;5072075;28;20391;-83
2021/12/31 08:16:48;;;;;;;46.80;23.33;;;;;;;3.81;100.00;93857.72;5072111;28;20056;-83
2021/12/31 08:19:15;;;;;;;45.63;25.95;;;;;;;3.79;100.00;93832.44;5072275;28;20074;-83
2021/12/31 08:21:43;;;;;;;53.05;28.65;;;;;;;4.11;100.00;93873.41;5072207;28;20055;-83
2021/12/31 08:24:10;;;;;;;53.72;26.10;;;;;;;4.22;100.00;93862.16;5072011;28;20484;-83
2021/12/31 08:26:38;;;;;;;48.60;26.73;;;;;;;4.27;100.00;93852.34;5072075;28;20056;-83
2021/12/31 08:29:05;;;;;;;50.38;27.88;;;;;;;4.55;100.00;93868.13;5071688;28;20114;-83
2021/12/31 08:31:32;;;;;;;52.42;29.23;;;;;;;4.73;100.00;93864.69;5071722;28;20048;-83
2021/12/31 08:33:59;;;;;;;44.95;25.17;;;;;;;4.91;100.00;93861.97;5071711;28;20048;-83
2021/12/31 08:36:26;;;;;;;39.25;22.88;;;;;;;4.97;100.00;93854.66;5071859;28;20049;-83
2021/12/31 08:38:54;;;;;;;44.00;24.60;;;;;;;5.21;100.00;93864.06;5071804;28;20049;-83
2021/12/31 08:41:21;;;;;;;9.55;6.38;;;;;;;5.32;100.00;93850.22;5071633;28;20052;-83
2021/12/31 08:43:47;;;;;;;12.23;7.70;;;;;;;5.29;100.00;93850.53;5071427;28;20049;-84
2021/12/31 08:46:18;;;;;;;16.20;8.07;;;;;;;5.32;100.00;93861.19;5071437;28;20094;-83
2021/12/31 08:48:44;;;;;;;14.98;10.10;;;;;;;5.33;100.00;93834.75;5071796;28;20154;-83
2021/12/31 08:51:11;;;;;;;13.50;8.10;;;;;;;5.56;100.00;93856.22;5071361;28;20045;-83
2021/12/31 08:53:38;;;;;;;14.60;8.82;;;;;;;5.60;100.00;93855.72;5071602;28;20055;-83
2021/12/31 08:56:06;;;;;;;14.07;7.75;;;;;;;5.69;100.00;93848.06;5070382;28;20486;-83
2021/12/31 08:58:34;;;;;;;15.82;9.88;;;;;;;5.68;100.00;93826.06;5071009;28;20044;-83
2021/12/31 09:01:00;;;;;;;15.30;9.70;;;;;;;5.93;100.00;93843.84;5071393;28;20118;-83
2021/12/31 09:03:27;;;;;;;22.02;14.75;;;;;;;6.06;100.00;93851.78;5071021;28;20052;-83
2021/12/31 09:05:54;;;;;;;15.35;9.55;;;;;;;5.93;100.00;93854.81;5070865;28;20098;-83
2021/12/31 09:08:22;;;;;;;15.88;9.45;;;;;;;5.88;100.00;93845.13;5071065;28;20134;-83
2021/12/31 09:10:49;;;;;;;13.50;8.35;;;;;;;6.11;100.00;93848.75;5070783;28;20056;-83
2021/12/31 09:13:17;;;;;;;12.73;8.75;;;;;;;6.20;100.00;93845.19;5066532;28;20101;-83
2021/12/31 09:15:44;;;;;;;12.00;7.93;;;;;;;6.38;100.00;93846.69;5071043;28;20044;-83
2021/12/31 09:18:11;;;;;;;12.48;7.97;;;;;;;6.49;100.00;93840.44;5070715;28;20102;-83
2021/12/31 09:20:38;;;;;;;12.20;6.85;;;;;;;6.61;100.00;93841.63;5072087;28;20052;-83
2021/12/31 09:23:05;;;;;;;11.73;7.25;;;;;;;6.74;100.00;93838.53;5070859;28;20411;-84
2021/12/31 09:25:31;;;;;;;16.23;8.15;;;;;;;6.89;100.00;93842.91;5069952;28;20082;-84
2021/12/31 09:27:58;;;;;;;11.70;7.60;;;;;;;7.03;100.00;93841.38;5070407;28;20052;-83
2021/12/31 09:30:27;;;;;;;13.95;7.90;;;;;;;7.12;100.00;93837.75;5070073;28;20040;-84
2021/12/31 09:32:54;;;;;;;15.90;8.38;;;;;;;7.11;100.00;93830.25;5070232;28;20056;-83
2021/12/31 09:35:21;;;;;;;13.75;9.07;;;;;;;7.05;100.00;93829.97;5070361;28;20048;-83
2021/12/31 09:37:47;;;;;;;16.80;8.60;;;;;;;6.94;100.00;93794.63;5070682;28;20448;-84
2021/12/31 09:40:18;;;;;;;14.93;8.15;;;;;;;7.33;100.00;93828.66;5070793;28;20503;-84
2021/12/31 09:42:47;;;;;;;17.27;9.25;;;;;;;7.50;100.00;93819.03;5070756;28;20491;-83
2021/12/31 09:45:16;;;;;;;12.82;8.10;;;;;;;7.62;100.00;93824.53;5070786;28;20148;-83
2021/12/31 09:47:45;;;;;;;13.30;8.23;;;;;;;7.74;100.00;93824.91;5070908;28;20083;-83
2021/12/31 09:50:12;;;;;;;13.90;6.70;;;;;;;7.86;100.00;93825.22;5070623;28;20078;-83
2021/12/31 09:52:40;;;;;;;16.02;7.25;;;;;;;8.00;100.00;93832.13;5070285;28;20142;-83
2021/12/31 09:55:08;;;;;;;12.63;7.60;;;;;;;8.08;100.00;93831.22;5070487;28;20469;-83
2021/12/31 09:57:35;;;;;;;11.60;6.80;;;;;;;7.89;99.71;93832.56;5070790;28;20052;-83
2021/12/31 10:00:03;;;;;;;18.35;7.45;;;;;;;7.73;100.00;93826.66;5070682;28;20430;-83
2021/12/31 10:02:33;;;;;;;15.35;7.25;;;;;;;7.65;100.00;93805.50;5070552;28;20545;-83
2021/12/31 10:05:03;;;;;;;15.75;7.93;;;;;;;7.78;100.00;93815.88;5070468;28;20057;-83
2021/12/31 10:07:30;;;;;;;14.32;8.10;;;;;;;7.83;100.00;93800.78;5070460;28;20044;-83
2021/12/31 10:10:14;;;;;;;17.58;8.85;;;;;;;7.91;100.00;93804.25;5070350;28;20040;-83
2021/12/31 10:12:56;;;;;;;13.77;8.55;;;;;;;7.98;100.00;93797.44;5068682;28;20048;-84
2021/12/31 10:15:25;;;;;;;16.63;8.55;;;;;;;7.97;100.00;93777.94;5067512;28;20546;-84
2021/12/31 10:17:55;;;;;;;21.30;9.52;;;;;;;8.04;100.00;93768.59;5068129;28;20939;-83
2021/12/31 10:20:23;;;;;;;21.98;9.13;;;;;;;8.29;100.00;93789.53;5073314;28;20415;-84
2021/12/31 10:22:51;;;;;;;17.17;9.60;;;;;;;8.44;100.00;93786.13;5073734;28;20483;-83
2021/12/31 10:25:22;;;;;;;14.65;7.03;;;;;;;8.49;100.00;93783.03;5073164;28;20060;-83
2021/12/31 10:27:51;;;;;;;15.02;7.07;;;;;;;8.57;100.00;93782.94;5073582;28;20445;-83
2021/12/31 10:30:23;;;;;;;18.48;7.03;;;;;;;8.66;100.00;93784.41;5074216;28;20139;-83
2021/12/31 10:32:51;;;;;;;14.88;5.78;;;;;;;8.62;100.00;93785.75;5074052;28;20521;-83
2021/12/31 10:35:20;;;;;;;13.05;5.68;;;;;;;8.53;99.70;93789.41;5074077;28;20056;-83
2021/12/31 10:37:50;;;;;;;15.82;5.15;;;;;;;8.52;99.16;93783.47;5073845;28;20052;-83
2021/12/31 10:40:28;;;;;;;9.25;4.65;;;;;;;8.64;97.04;93786.34;5073796;28;20056;-84
2021/12/31 10:43:15;;;;;;;15.68;5.80;;;;;;;8.71;99.77;93773.63;5074182;28;20473;-84
2021/12/31 10:45:55;;;;;;;11.40;5.05;;;;;;;8.77;98.29;93764.38;5073666;28;20040;-84
2021/12/31 10:48:22;;;;;;;15.05;6.75;;;;;;;8.74;96.67;93775.78;5073755;28;20094;-84
2021/12/31 10:50:52;;;;;;;16.20;6.60;;;;;;;8.69;97.56;93761.00;5073747;28;20053;-84
2021/12/31 10:53:32;;;;;;;20.05;7.68;;;;;;;8.73;100.00;93766.53;5073496;28;20049;-84
2021/12/31 10:56:07;;;;;;;24.83;9.43;;;;;;;8.79;100.00;93750.41;5073524;28;20086;-84
2021/12/31 10:58:34;;;;;;;34.15;17.95;;;;;;;8.94;100.00;93758.03;5073733;28;20098;-83
2021/12/31 11:01:04;;;;;;;15.15;7.10;;;;;;;9.06;100.00;93767.75;5073636;28;20834;-84
2021/12/31 11:03:31;;;;;;;15.10;6.45;;;;;;;9.07;100.00;93748.84;5073426;28;20053;-84
2021/12/31 11:05:59;;;;;;;11.38;4.90;;;;;;;9.28;100.00;93765.97;5073314;28;20055;-84
2021/12/31 11:08:28;;;;;;;11.48;4.78;;;;;;;9.13;99.75;93732.75;5073399;28;20060;-84
2021/12/31 11:10:57;;;;;;;9.73;4.32;;;;;;;9.45;100.00;93763.09;5073101;28;20602;-83
2021/12/31 11:13:28;;;;;;;7.18;4.57;;;;;;;9.36;99.84;93765.03;5073255;28;20059;-84
2021/12/31 11:15:55;;;;;;;8.30;3.63;;;;;;;9.39;99.26;93764.63;5072597;28;20059;-84
2021/12/31 11:18:23;;;;;;;10.70;4.35;;;;;;;9.37;99.99;93764.03;5072959;28;20059;-84
2021/12/31 11:20:52;;;;;;;9.25;4.65;;;;;;;9.25;100.00;93760.41;5073107;28;20056;-84
2021/12/31 11:23:24;;;;;;;6.55;3.20;;;;;;;9.20;99.04;93769.47;5073537;28;20063;-84
2021/12/31 11:25:54;;;;;;;4.72;2.70;;;;;;;8.79;100.00;93765.00;5073100;28;20059;-83